createdAt,value
2018-04-10T00:00:37.756Z,6.30
2018-04-10T00:03:05.399Z,7.27
2018-04-10T00:05:33.020Z,6.30
2018-04-10T00:08:00.612Z,7.40
2018-04-10T00:10:28.220Z,7.67
2018-04-10T00:12:55.838Z,7.17
2018-04-10T00:15:23.421Z,7.00
2018-04-10T00:17:51.060Z,7.10
2018-04-10T00:20:18.736Z,7.17
2018-04-10T00:22:46.374Z,7.53
2018-04-10T00:25:14.008Z,8.13
2018-04-10T00:27:41.594Z,8.03
2018-04-10T00:30:09.178Z,7.63
2018-04-10T00:32:36.805Z,7.83
2018-04-10T00:35:04.477Z,8.60
2018-04-10T00:37:32.105Z,8.53
2018-04-10T00:39:59.709Z,7.97
2018-04-10T00:42:27.295Z,8.27
2018-04-10T00:44:54.885Z,8.67
2018-04-10T00:47:22.510Z,8.47
2018-04-10T00:49:50.108Z,9.07
2018-04-10T00:52:17.708Z,8.90
2018-04-10T00:54:45.300Z,8.57
2018-04-10T00:57:12.884Z,8.33
2018-04-10T00:59:40.470Z,8.43
2018-04-10T01:02:08.061Z,8.67
2018-04-10T01:04:35.690Z,9.13
2018-04-10T01:07:03.285Z,8.37
2018-04-10T01:09:30.884Z,8.67
2018-04-10T01:11:58.492Z,10.07
2018-04-10T01:14:26.077Z,9.07
2018-04-10T01:16:53.712Z,9.37
2018-04-10T01:19:21.301Z,9.03
2018-04-10T01:21:48.896Z,8.40
2018-04-10T01:24:16.526Z,9.17
2018-04-10T01:26:44.116Z,9.40
2018-04-10T01:29:11.708Z,9.20
2018-04-10T01:31:39.336Z,9.83
2018-04-10T01:34:06.916Z,9.17
2018-04-10T01:36:34.504Z,8.57
2018-04-10T01:39:02.129Z,8.73
2018-04-10T01:41:29.732Z,9.80
2018-04-10T01:43:57.317Z,9.60
2018-04-10T01:46:24.952Z,9.90
2018-04-10T01:48:52.546Z,9.30
2018-04-10T01:51:20.184Z,9.23
2018-04-10T01:53:47.784Z,9.13
2018-04-10T01:56:15.400Z,9.87
2018-04-10T01:58:43.000Z,10.60
2018-04-10T02:01:10.593Z,10.00
2018-04-10T02:03:38.184Z,9.70
2018-04-10T02:06:05.769Z,9.23
2018-04-10T02:08:33.392Z,9.57
2018-04-10T02:11:00.986Z,10.27
2018-04-10T02:13:28.581Z,10.67
2018-04-10T02:15:56.208Z,9.37
2018-04-10T02:18:23.844Z,10.30
2018-04-10T02:20:51.468Z,9.83
2018-04-10T02:23:19.068Z,10.20
2018-04-10T02:25:46.668Z,10.30
2018-04-10T02:28:14.312Z,10.60
2018-04-10T02:30:41.900Z,9.73
2018-04-10T02:33:09.508Z,10.40
2018-04-10T02:35:37.136Z,10.70
2018-04-10T02:38:04.757Z,10.40
2018-04-10T02:40:32.370Z,11.00
2018-04-10T02:42:59.961Z,10.60
2018-04-10T02:45:27.590Z,11.23
2018-04-10T02:47:55.244Z,11.17
2018-04-10T02:50:22.834Z,11.03
2018-04-10T02:52:50.442Z,11.57
2018-04-10T02:55:18.085Z,11.30
2018-04-10T02:57:45.673Z,11.33
2018-04-10T03:00:13.284Z,10.97
2018-04-10T03:02:40.932Z,12.03
2018-04-10T03:05:08.530Z,10.97
2018-04-10T03:07:36.136Z,11.37
2018-04-10T03:10:03.789Z,11.07
2018-04-10T03:12:31.397Z,11.17
2018-04-10T03:14:59.009Z,13.03
2018-04-10T03:17:26.644Z,11.50
2018-04-10T03:19:54.265Z,11.20
2018-04-10T03:22:21.889Z,11.53
2018-04-10T03:24:49.528Z,11.90
2018-04-10T03:27:17.149Z,11.30
2018-04-10T03:29:44.732Z,12.47
2018-04-10T03:32:12.336Z,12.03
2018-04-10T03:34:39.965Z,11.57
2018-04-10T03:37:07.632Z,12.10
2018-04-10T03:39:35.228Z,11.43
2018-04-10T03:42:02.816Z,11.50
2018-04-10T03:44:30.420Z,12.77
2018-04-10T03:46:58.017Z,11.53
2018-04-10T03:49:25.605Z,11.87
2018-04-10T03:51:53.288Z,12.30
2018-04-10T03:54:20.895Z,12.70
2018-04-10T03:56:48.496Z,12.07
2018-04-10T03:59:16.119Z,11.30
2018-04-10T04:01:43.728Z,12.77
2018-04-10T04:04:11.321Z,13.17
2018-04-10T04:06:38.913Z,12.97
2018-04-10T04:09:06.596Z,12.20
2018-04-10T04:11:34.261Z,12.73
2018-04-10T04:14:01.887Z,12.53
2018-04-10T04:16:41.114Z,13.37
2018-04-10T04:19:20.268Z,12.00
2018-04-10T04:24:52.730Z,13.50
2018-04-10T04:27:20.357Z,13.43
2018-04-10T04:29:48.052Z,14.33
2018-04-10T04:32:15.892Z,14.10
2018-04-10T04:34:43.532Z,15.30
2018-04-10T04:37:11.188Z,16.77
2018-04-10T04:39:38.776Z,16.93
2018-04-10T04:42:06.413Z,18.17
2018-04-10T04:44:34.020Z,18.50
2018-04-10T04:47:01.633Z,18.53
2018-04-10T04:49:29.438Z,18.93
2018-04-10T04:51:57.028Z,16.47
2018-04-10T04:54:24.681Z,15.50
2018-04-10T04:56:52.277Z,15.20
2018-04-10T04:59:19.889Z,15.20
2018-04-10T05:01:47.530Z,16.13
2018-04-10T05:04:15.137Z,17.10
2018-04-10T05:06:42.737Z,17.10
2018-04-10T05:09:10.328Z,18.67
2018-04-10T05:11:37.968Z,18.00
2018-04-10T05:14:05.584Z,16.27
2018-04-10T05:16:33.220Z,17.40
2018-04-10T05:19:00.825Z,17.80
2018-04-10T05:21:28.417Z,17.37
2018-04-10T05:23:57.121Z,18.10
2018-04-10T05:26:25.123Z,18.67
2018-04-10T05:28:52.776Z,19.57
2018-04-10T05:31:20.376Z,18.50
2018-04-10T05:33:47.974Z,19.10
2018-04-10T05:36:15.617Z,18.17
2018-04-10T05:38:43.213Z,17.70
2018-04-10T05:41:10.853Z,18.03
2018-04-10T05:43:38.485Z,17.17
2018-04-10T05:46:06.305Z,15.77
2018-04-10T05:48:33.928Z,16.97
2018-04-10T05:51:01.549Z,17.63
2018-04-10T05:53:29.169Z,15.17
2018-04-10T05:55:56.778Z,15.33
2018-04-10T05:58:24.403Z,14.77
2018-04-10T06:00:52.004Z,15.17
2018-04-10T06:03:19.640Z,14.27
2018-04-10T06:05:47.261Z,13.93
2018-04-10T06:08:14.905Z,13.70
2018-04-10T06:10:42.491Z,13.73
2018-04-10T06:13:10.085Z,14.00
2018-04-10T06:15:37.686Z,14.60
2018-04-10T06:18:05.288Z,14.20
2018-04-10T06:20:32.957Z,14.43
2018-04-10T06:23:00.576Z,14.13
2018-04-10T06:25:28.161Z,13.57
2018-04-10T06:27:55.757Z,13.73
2018-04-10T06:30:23.340Z,13.77
2018-04-10T06:32:50.966Z,14.17
2018-04-10T06:35:18.561Z,12.50
2018-04-10T06:37:46.164Z,14.00
2018-04-10T06:40:13.769Z,14.00
2018-04-10T06:42:41.382Z,17.77
2018-04-10T06:45:09.036Z,12.90
2018-04-10T06:47:36.678Z,12.80
2018-04-10T06:50:04.321Z,12.27
2018-04-10T06:52:31.958Z,12.57
2018-04-10T06:55:07.470Z,11.13
2018-04-10T06:57:35.338Z,10.30
2018-04-10T07:00:02.933Z,10.10
2018-04-10T07:02:30.648Z,11.07
2018-04-10T07:04:58.273Z,10.60
2018-04-10T07:07:25.893Z,9.90
2018-04-10T07:09:53.505Z,10.10
2018-04-10T07:12:21.157Z,10.40
2018-04-10T07:14:48.756Z,12.03
2018-04-10T07:17:16.348Z,10.00
2018-04-10T07:19:43.937Z,11.07
2018-04-10T07:22:11.589Z,10.03
2018-04-10T07:24:39.181Z,10.80
2018-04-10T07:27:06.781Z,11.10
2018-04-10T07:29:34.404Z,10.97
2018-04-10T07:32:02.026Z,10.83
2018-04-10T07:34:29.638Z,11.23
2018-04-10T07:36:57.260Z,11.10
2018-04-10T07:39:24.853Z,11.30
2018-04-10T07:41:52.440Z,9.90
2018-04-10T07:44:20.041Z,10.37
2018-04-10T07:46:47.760Z,9.97
2018-04-10T07:49:15.347Z,9.97
2018-04-10T07:51:42.993Z,9.97
2018-04-10T07:54:10.782Z,11.00
2018-04-10T07:56:38.409Z,10.47
2018-04-10T07:59:06.001Z,10.43
2018-04-10T08:01:33.641Z,8.37
2018-04-10T08:04:01.281Z,8.50
2018-04-10T08:06:28.866Z,9.37
2018-04-10T08:08:56.491Z,9.53
2018-04-10T08:11:24.084Z,9.90
2018-04-10T08:13:51.724Z,8.73
2018-04-10T08:16:19.349Z,8.83
2018-04-10T08:18:46.970Z,9.57
2018-04-10T08:21:14.553Z,9.43
2018-04-10T08:23:42.236Z,7.97
2018-04-10T08:26:09.816Z,7.80
2018-04-10T08:28:37.437Z,7.27
2018-04-10T08:31:05.081Z,8.13
2018-04-10T08:33:32.688Z,6.87
2018-04-10T08:36:00.269Z,7.77
2018-04-10T08:38:27.897Z,7.07
2018-04-10T08:40:55.472Z,8.70
2018-04-10T08:43:23.086Z,8.10
2018-04-10T08:45:50.683Z,7.37
2018-04-10T08:48:18.271Z,7.20
2018-04-10T08:50:45.881Z,7.83
2018-04-10T08:53:13.477Z,7.63
2018-04-10T08:55:41.166Z,8.43
2018-04-10T08:58:08.757Z,7.73
2018-04-10T09:00:36.361Z,8.33
2018-04-10T09:03:04.009Z,8.33
2018-04-10T09:05:31.625Z,8.70
2018-04-10T09:07:59.225Z,7.50
2018-04-10T09:10:26.853Z,8.30
2018-04-10T09:12:54.495Z,8.97
2018-04-10T09:15:22.132Z,7.30
2018-04-10T09:17:49.733Z,7.87
2018-04-10T09:20:17.332Z,6.63
2018-04-10T09:22:44.920Z,6.80
2018-04-10T09:25:12.620Z,7.73
2018-04-10T09:27:40.290Z,7.30
2018-04-10T09:30:07.920Z,7.07
2018-04-10T09:32:35.510Z,7.00
2018-04-10T09:35:03.090Z,6.87
2018-04-10T09:37:30.716Z,7.60
2018-04-10T09:39:58.308Z,7.30
2018-04-10T09:42:25.909Z,7.27
2018-04-10T09:44:53.520Z,7.53
2018-04-10T09:47:21.141Z,7.13
2018-04-10T09:49:48.732Z,8.03
2018-04-10T09:52:16.353Z,7.47
2018-04-10T09:54:43.991Z,7.40
2018-04-10T09:57:11.581Z,8.50
2018-04-10T09:59:39.173Z,7.47
2018-04-10T10:02:06.749Z,8.20
2018-04-10T10:04:34.414Z,7.17
2018-04-10T10:07:02.037Z,7.70
2018-04-10T10:09:29.638Z,7.30
2018-04-10T10:11:57.297Z,7.10
2018-04-10T10:14:24.880Z,6.80
2018-04-10T10:16:52.460Z,6.33
2018-04-10T10:19:20.095Z,7.13
2018-04-10T10:21:47.709Z,7.73
2018-04-10T10:24:15.324Z,7.30
2018-04-10T10:26:42.965Z,6.93
2018-04-10T10:29:10.549Z,11.10
2018-04-10T10:31:38.150Z,7.70
2018-04-10T10:34:05.789Z,9.57
2018-04-10T10:36:33.370Z,7.63
2018-04-10T10:39:00.953Z,8.30
2018-04-10T10:41:28.545Z,7.37
2018-04-10T10:43:56.141Z,7.40
2018-04-10T10:46:23.754Z,6.70
2018-04-10T10:48:51.338Z,7.50
2018-04-10T10:51:18.933Z,6.90
2018-04-10T10:53:46.561Z,6.50
2018-04-10T10:56:14.177Z,6.13
2018-04-10T10:58:41.784Z,6.03
2018-04-10T11:01:09.365Z,4.93
2018-04-10T11:03:37.005Z,5.20
2018-04-10T11:06:04.633Z,5.70
2018-04-10T11:08:32.257Z,5.37
2018-04-10T11:10:59.846Z,5.90
2018-04-10T11:13:27.465Z,6.20
2018-04-10T11:15:55.133Z,6.37
2018-04-10T11:18:22.725Z,5.77
2018-04-10T11:20:50.320Z,6.43
2018-04-10T11:23:17.963Z,5.47
2018-04-10T11:25:45.548Z,6.97
2018-04-10T11:28:13.144Z,5.20
2018-04-10T11:30:40.794Z,5.77
2018-04-10T11:33:08.503Z,6.10
2018-04-10T11:35:36.109Z,5.57
2018-04-10T11:38:03.696Z,6.23
2018-04-10T11:40:31.283Z,5.13
2018-04-10T11:42:58.904Z,7.00
2018-04-10T11:45:26.528Z,5.97
2018-04-10T11:47:54.113Z,6.20
2018-04-10T11:50:21.697Z,5.77
2018-04-10T11:52:49.312Z,4.90
2018-04-10T11:55:16.929Z,5.00
2018-04-10T11:57:44.505Z,5.37
2018-04-10T12:00:12.142Z,5.23
2018-04-10T12:02:39.767Z,5.20
2018-04-10T12:05:07.443Z,5.90
2018-04-10T12:07:35.040Z,5.30
2018-04-10T12:10:02.629Z,5.40
2018-04-10T12:12:30.360Z,5.10
2018-04-10T12:14:57.942Z,4.80
2018-04-10T12:17:25.521Z,4.67
2018-04-10T12:19:53.157Z,5.23
2018-04-10T12:22:20.777Z,5.50
2018-04-10T12:24:48.360Z,5.73
2018-04-10T12:27:15.948Z,5.37
2018-04-10T12:29:43.566Z,5.17
2018-04-10T12:32:11.189Z,5.50
2018-04-10T12:34:38.780Z,5.27
2018-04-10T12:37:06.427Z,5.80
2018-04-10T12:39:34.028Z,5.40
2018-04-10T12:42:01.617Z,6.07
2018-04-10T12:44:29.238Z,6.03
2018-04-10T12:46:56.808Z,5.40
2018-04-10T12:49:24.414Z,6.67
2018-04-10T12:51:52.065Z,6.50
2018-04-10T12:54:19.656Z,5.50
2018-04-10T12:56:47.289Z,6.10
2018-04-10T12:59:14.888Z,5.93
2018-04-10T13:01:42.472Z,5.53
2018-04-10T13:04:10.100Z,6.10
2018-04-10T13:06:37.688Z,5.20
2018-04-10T13:09:08.073Z,5.30
2018-04-10T13:11:35.696Z,5.57
2018-04-10T13:14:03.352Z,5.33
2018-04-10T13:16:30.939Z,5.47
2018-04-10T13:18:58.561Z,5.83
2018-04-10T13:21:26.138Z,5.93
2018-04-10T13:23:53.720Z,5.40
2018-04-10T13:26:21.380Z,5.40
2018-04-10T13:28:48.958Z,5.50
2018-04-10T13:31:16.590Z,5.30
2018-04-10T13:33:44.201Z,5.50
2018-04-10T13:36:11.789Z,5.40
2018-04-10T13:38:39.400Z,5.03
2018-04-10T13:41:07.020Z,5.13
2018-04-10T13:43:34.601Z,5.37
2018-04-10T13:46:02.223Z,5.17
2018-04-10T13:48:29.804Z,5.40
2018-04-10T13:50:57.405Z,5.87
2018-04-10T13:53:24.989Z,5.17
2018-04-10T13:55:52.581Z,5.37
2018-04-10T13:58:20.189Z,5.50
2018-04-10T14:00:47.808Z,5.70
2018-04-10T14:03:15.436Z,5.97
2018-04-10T14:05:43.059Z,5.53
2018-04-10T14:08:10.725Z,5.13
2018-04-10T14:10:38.329Z,5.10
2018-04-10T14:13:05.921Z,5.83
2018-04-10T14:15:33.548Z,5.77
2018-04-10T14:18:01.138Z,5.13
2018-04-10T14:20:28.721Z,5.67
2018-04-10T14:22:56.361Z,6.00
2018-04-10T14:25:24.021Z,6.17
2018-04-10T14:27:51.629Z,5.07
2018-04-10T14:30:19.284Z,5.47
2018-04-10T14:32:46.873Z,4.90
2018-04-10T14:35:14.489Z,5.60
2018-04-10T14:37:42.122Z,5.47
2018-04-10T14:40:09.709Z,5.27
2018-04-10T14:42:37.313Z,5.17
2018-04-10T14:45:04.904Z,5.53
2018-04-10T14:47:32.543Z,5.90
2018-04-10T14:50:00.126Z,5.70
2018-04-10T14:52:27.805Z,5.17
2018-04-10T14:54:55.433Z,4.90
2018-04-10T14:57:23.023Z,5.07
2018-04-10T14:59:50.696Z,5.73
2018-04-10T15:02:18.308Z,5.73
2018-04-10T15:04:45.940Z,5.27
2018-04-10T15:07:13.529Z,5.30
2018-04-10T15:09:41.112Z,5.10
2018-04-10T15:12:08.706Z,6.13
2018-04-10T15:14:36.326Z,6.00
2018-04-10T15:17:03.921Z,5.60
2018-04-10T15:19:31.547Z,5.40
2018-04-10T15:21:59.172Z,5.37
2018-04-10T15:24:26.755Z,5.90
2018-04-10T15:26:54.345Z,5.40
2018-04-10T15:29:21.937Z,5.97
2018-04-10T15:31:49.575Z,4.90
2018-04-10T15:34:17.204Z,5.60
2018-04-10T15:36:44.757Z,5.70
2018-04-10T15:39:12.393Z,5.60
2018-04-10T15:41:40.053Z,5.40
2018-04-10T15:44:07.633Z,5.53
2018-04-10T15:46:35.225Z,5.37
2018-04-10T15:49:02.864Z,5.60
2018-04-10T15:51:30.456Z,5.30
2018-04-10T15:53:58.037Z,5.33
2018-04-10T15:56:25.648Z,5.13
2018-04-10T15:58:53.266Z,5.40
2018-04-10T16:01:20.849Z,6.00
2018-04-10T16:03:48.457Z,5.50
2018-04-10T16:06:16.125Z,6.07
2018-04-10T16:08:43.744Z,5.80
2018-04-10T16:11:11.337Z,6.30
2018-04-10T16:13:40.653Z,6.30
2018-04-10T16:16:08.237Z,6.97
2018-04-10T16:18:35.833Z,7.13
2018-04-10T16:21:03.494Z,7.57
2018-04-10T16:23:31.188Z,8.13
2018-04-10T16:25:58.809Z,7.00
2018-04-10T16:28:26.404Z,7.67
2018-04-10T16:30:54.050Z,7.70
2018-04-10T16:33:21.629Z,7.20
2018-04-10T16:35:49.241Z,6.80
2018-04-10T16:38:16.857Z,7.33
2018-04-10T16:40:44.449Z,7.07
2018-04-10T16:43:12.051Z,6.80
2018-04-10T16:45:39.636Z,6.70
2018-04-10T16:48:07.393Z,5.77
2018-04-10T16:50:35.012Z,6.53
2018-04-10T16:53:02.630Z,6.80
2018-04-10T16:55:30.248Z,7.17
2018-04-10T16:57:57.833Z,7.90
2018-04-10T17:00:25.430Z,7.53
2018-04-10T17:02:53.060Z,6.93
2018-04-10T17:05:20.894Z,7.87
2018-04-10T17:07:49.134Z,7.40
2018-04-10T17:10:17.114Z,6.47
2018-04-10T17:12:44.853Z,7.27
2018-04-10T17:15:12.769Z,7.70
2018-04-10T17:17:40.989Z,7.80
2018-04-10T17:20:09.372Z,8.37
2018-04-10T17:22:37.421Z,7.50
2018-04-10T17:25:05.034Z,7.53
2018-04-10T17:27:32.618Z,8.90
2018-04-10T17:30:00.280Z,7.63
2018-04-10T17:32:27.917Z,7.70
2018-04-10T17:34:55.518Z,8.10
2018-04-10T17:37:23.218Z,7.80
2018-04-10T17:39:50.852Z,7.53
2018-04-10T17:42:18.483Z,7.10
2018-04-10T17:44:46.060Z,7.27
2018-04-10T17:47:13.656Z,7.43
2018-04-10T17:49:41.352Z,7.90
2018-04-10T17:52:08.969Z,7.83
2018-04-10T17:54:36.657Z,7.83
2018-04-10T17:57:04.343Z,8.67
2018-04-10T17:59:32.227Z,8.87
2018-04-10T18:01:59.945Z,8.77
2018-04-10T18:04:27.585Z,9.90
2018-04-10T18:06:55.325Z,9.90
2018-04-10T18:09:22.929Z,9.47
2018-04-10T18:11:50.559Z,9.67
2018-04-10T18:14:18.173Z,9.30
2018-04-10T18:16:46.961Z,9.07
2018-04-10T18:19:14.598Z,9.10
2018-04-10T18:21:42.229Z,8.90
2018-04-10T18:24:09.808Z,8.67
2018-04-10T18:26:37.430Z,10.47
2018-04-10T18:29:05.053Z,9.57
2018-04-10T18:31:32.649Z,8.73
2018-04-10T18:34:00.229Z,8.23
2018-04-10T18:36:27.857Z,9.07
2018-04-10T18:38:55.476Z,9.10
2018-04-10T18:41:23.100Z,8.90
2018-04-10T18:43:50.748Z,9.47
2018-04-10T18:46:18.353Z,9.60
2018-04-10T18:48:45.985Z,9.40
2018-04-10T18:51:13.574Z,8.57
2018-04-10T18:53:41.173Z,8.17
2018-04-10T18:56:08.772Z,8.90
2018-04-10T18:58:36.412Z,7.10
2018-04-10T19:01:04.033Z,6.80
2018-04-10T19:03:31.892Z,6.93
2018-04-10T19:05:59.522Z,6.37
2018-04-10T19:08:27.104Z,5.37
2018-04-10T19:10:54.692Z,5.93
2018-04-10T19:13:22.281Z,5.23
2018-04-10T19:15:49.877Z,5.23
2018-04-10T19:18:17.457Z,5.47
2018-04-10T19:20:45.085Z,5.30
2018-04-10T19:23:12.670Z,5.60
2018-04-10T19:25:40.265Z,5.60
2018-04-10T19:28:07.940Z,5.77
2018-04-10T19:30:35.541Z,5.60
2018-04-10T19:33:03.225Z,5.70
2018-04-10T19:35:30.861Z,5.60
2018-04-10T19:37:58.443Z,4.93
2018-04-10T19:40:26.064Z,5.27
2018-04-10T19:42:53.741Z,5.37
2018-04-10T19:45:21.345Z,5.30
2018-04-10T19:47:48.933Z,5.77
2018-04-10T19:50:16.557Z,5.83
2018-04-10T19:52:44.166Z,5.70
2018-04-10T19:55:11.752Z,5.90
2018-04-10T19:57:39.417Z,5.67
2018-04-10T20:00:07.000Z,6.23
2018-04-10T20:02:34.593Z,5.47
2018-04-10T20:05:02.203Z,6.17
2018-04-10T20:07:29.789Z,6.90
2018-04-10T20:09:57.470Z,7.00
2018-04-10T20:12:25.103Z,6.40
2018-04-10T20:14:52.705Z,6.50
2018-04-10T20:17:20.292Z,6.73
2018-04-10T20:19:47.953Z,7.00
2018-04-10T20:22:15.577Z,5.73
2018-04-10T20:24:43.165Z,5.57
2018-04-10T20:27:10.753Z,6.70
2018-04-10T20:29:38.361Z,7.20
2018-04-10T20:32:05.981Z,6.37
2018-04-10T20:34:33.573Z,6.53
2018-04-10T20:37:01.234Z,7.80
2018-04-10T20:39:28.861Z,8.97
2018-04-10T20:41:56.453Z,8.60
2018-04-10T20:44:24.129Z,7.90
2018-04-10T20:46:51.714Z,8.80
2018-04-10T20:49:19.333Z,8.60
2018-04-10T20:51:46.969Z,7.80
2018-04-10T20:54:14.553Z,7.87
2018-04-10T20:56:42.137Z,7.77
2018-04-10T20:59:09.729Z,7.90
2018-04-10T21:01:37.352Z,7.53
2018-04-10T21:04:04.941Z,7.43
2018-04-10T21:06:32.534Z,8.07
2018-04-10T21:09:00.152Z,8.27
2018-04-10T21:11:27.817Z,9.10
2018-04-10T21:13:55.416Z,8.13
2018-04-10T21:16:23.057Z,10.53
2018-04-10T21:18:50.657Z,11.17
2018-04-10T21:21:18.245Z,14.60
2018-04-10T21:23:45.840Z,16.97
2018-04-10T21:26:13.435Z,17.50
2018-04-10T21:28:41.077Z,20.33
2018-04-10T21:31:08.817Z,23.00
2018-04-10T21:33:36.408Z,23.47
2018-04-10T21:36:03.997Z,22.90
2018-04-10T21:38:31.584Z,21.70
2018-04-10T21:40:59.184Z,20.73
2018-04-10T21:43:31.216Z,22.33
2018-04-10T21:45:58.842Z,20.83
2018-04-10T21:48:26.428Z,19.87
2018-04-10T21:50:54.021Z,19.50
2018-04-10T21:53:21.641Z,18.00
2018-04-10T21:55:49.241Z,18.67
2018-04-10T21:58:16.829Z,19.80
2018-04-10T22:00:44.969Z,20.30
2018-04-10T22:03:12.577Z,19.03
2018-04-10T22:05:40.287Z,18.93
2018-04-10T22:08:07.909Z,18.70
2018-04-10T22:10:35.496Z,19.00
2018-04-10T22:13:03.086Z,18.40
2018-04-10T22:15:30.676Z,19.67
2018-04-10T22:17:58.265Z,20.03
2018-04-10T22:20:25.897Z,19.40
2018-04-10T22:22:53.576Z,18.20
2018-04-10T22:25:21.160Z,18.73
2018-04-10T22:27:48.792Z,17.17
2018-04-10T22:30:16.420Z,18.00
2018-04-10T22:32:43.973Z,17.03
2018-04-10T22:35:11.581Z,17.80
2018-04-10T22:37:39.648Z,17.67
2018-04-10T22:40:07.288Z,17.53
2018-04-10T22:42:34.897Z,18.17
2018-04-10T22:45:02.549Z,20.33
2018-04-10T22:47:30.172Z,20.00
2018-04-10T22:49:57.782Z,17.33
2018-04-10T22:52:25.409Z,18.60
2018-04-10T22:54:53.038Z,24.17
2018-04-10T22:57:20.673Z,19.53
2018-04-10T22:59:48.322Z,18.23
2018-04-10T23:02:15.901Z,16.17
2018-04-10T23:04:43.530Z,16.80
2018-04-10T23:07:11.136Z,15.60
2018-04-10T23:09:38.733Z,16.83
2018-04-10T23:12:06.412Z,17.93
2018-04-10T23:14:34.013Z,15.50
2018-04-10T23:17:01.623Z,16.83
2018-04-10T23:19:29.250Z,15.40
2018-04-10T23:21:56.857Z,16.10
2018-04-10T23:24:24.529Z,16.33
2018-04-10T23:26:52.160Z,15.20
2018-04-10T23:29:19.771Z,14.67
2018-04-10T23:31:47.379Z,14.70
2018-04-10T23:34:14.967Z,14.60
2018-04-10T23:36:42.605Z,15.13
2018-04-10T23:39:10.244Z,15.67
2018-04-10T23:41:37.945Z,15.33
2018-04-10T23:44:05.589Z,13.93
2018-04-10T23:46:33.206Z,14.93
2018-04-10T23:49:00.797Z,14.83
2018-04-10T23:51:28.390Z,15.63
2018-04-10T23:53:55.985Z,14.60
2018-04-10T23:56:23.577Z,14.53
2018-04-10T23:58:51.177Z,13.90
